Jacksonville, FL (32204)

3:33 PM EST on March 06, 2015 (GMT -0500)
Historic Springfield | Change Station
CLOSE
Current Station
Personal Weather Station
Location: Jacksonville, FL
Elevation: 37 ft
Nearby Weather Stations

Elev 37 ft 30.35 °N, 81.66 °W | Updated 15 seconds ago

Overcast
Overcast
47.1 °F
Feels Like 44 °F
N
5.6
Wind Variable Wind from North
Gusts 9.8 mph

Today
High -- | Low -- °F
--% Chance of Precip.
Yesterday
High -- | Low -- °F
Precip. -- in
6:47 AM 6:28 PM
Full, 99% visible
Pressure 30.30 in
Visibility 5.0 miles
Clouds Overcast 600 ft
Windchill 44 °F
Dew Point 46 °F
Humidity 95%
Rainfall in
Snow Depth Not available.
UV 0.0 out of 12
Pollen 7.10 out of 12
Air Quality Not available.
Flu Activity Not available.
METAR KNIP 061953Z 01018KT 5SM -RA BR OVC006 11/08 A3031 RMK SLP258 P0000 T01060083

More Conditions Fewer Conditions

Pressure 30.30 in
Visibility 5.0 miles
Clouds Overcast 600 ft
Windchill 44 °F
Dew Point 46 °F
Humidity 95%
Rainfall in
Snow Depth Not available.
UV 0.0 out of 12
Pollen 7.10 out of 12
Air Quality Not available.
Flu Activity Not available.
METAR KNIP 061953Z 01018KT 5SM -RA BR OVC006 11/08 A3031 RMK SLP258 P0000 T01060083

More Conditions Fewer Conditions

10-Day Weather Forecast

Almanac

Astronomy

Mar. 06, 2015 Rise Set
Actual Time
Civil Twilight
Nautical Twilight
Astronomical Twilight
Moon
Length of Visible Light
Length of Day
Tomorrow will be .
, % of the Moon is Illuminated

Today's Extremes

State Highs State Lows

Community

WunderPhotos

Upload Photos

1,803,389 photos uploaded!

WunderBlogs® & News

Nearby

Air Quality

  Air Quality AQ Index Pollutant
Not available.

Snow Depth

Station Depth Elevation

Earthquake Activity

City Distance Mag. Time & Date
Minimum magnitude displayed is 2.5.

Coastal Water Temperatures

Place Temperature

Nearby Weather Stations